LFSB METAR :   2017/04/25 06:00 LFSB 250600Z VRB01KT 9999 BKN050 13/06 Q1009 NOSIG

TAF  2017/04/25 06:21 TAF LFSB 250500Z 2506/2606 28008KT 9999 BKN053 TEMPO 2510/2515 30015G25KT 3000 RA BKN040TCU PROB40 TEMPO 2511/2515 SCT025CB BECMG 2516/2519 34010KT 5000 RA BKN010 OVC025 TEMPO 2518/2524 3000 BKN005 PROB40 TEMPO 2519/2524 34013G23KT BECMG 2600/2603 3000 -RADZ OVC005 TEMPO 2600/2606 OVC003 PROB30 TEMPO 2602/2606 1300 SNRA